Time;durP1;ratioP1;P1;durP2;ratioP2;P2;SDS_P1;SDS_P2;PMS_P1;PMS_P2;Temp;Humidity;BMP_temperature;BMP_pressure;BME280_temperature;BME280_humidity;BME280_pressure;Samples;Min_cycle;Max_cycle;Signal;HPM_P1;HPM_P2
2023/04/01 00:00:06;;;;;;;1.25;0.30;;;7.10;99.90;;;;;;20843513;28;20060;-77
2023/04/01 00:10:13;;;;;;;0.50;0.30;;;6.90;99.90;;;;;;20842331;28;20378;-78
2023/04/01 00:20:14;;;;;;;1.00;0.38;;;6.80;99.90;;;;;;20836428;28;20037;-78
2023/04/01 00:30:15;;;;;;;;;;;6.60;99.90;;;;;;20839907;28;20669;-78
2023/04/01 00:40:44;;;;;;;1.73;0.63;;;6.60;99.90;;;;;;20839415;28;19912;-77
2023/04/01 00:51:13;;;;;;;1.75;0.43;;;6.60;99.90;;;;;;20842182;28;20041;-78
2023/04/01 01:01:15;;;;;;;2.20;0.47;;;6.60;99.90;;;;;;20840463;28;20041;-78
2023/04/01 01:11:26;;;;;;;0.52;0.20;;;6.70;99.90;;;;;;20843586;28;20083;-78
2023/04/01 01:21:30;;;;;;;3.43;0.87;;;6.70;99.90;;;;;;20838548;28;20502;-78
2023/04/01 01:31:51;;;;;;;5.43;0.75;;;6.60;99.90;;;;;;20842815;28;20037;-78
2023/04/01 01:41:52;;;;;;;2.00;0.40;;;6.70;99.90;;;;;;20845141;28;20122;-78
2023/04/01 01:51:53;;;;;;;;;;;6.70;99.90;;;;;;20839796;28;20033;-77
2023/04/01 02:01:56;;;;;;;1.10;0.45;;;6.70;99.90;;;;;;20854086;28;19967;-78
2023/04/01 02:12:08;;;;;;;0.63;0.40;;;6.60;99.90;;;;;;20858835;28;20037;-78
2023/04/01 02:22:18;;;;;;;2.78;1.13;;;6.70;99.90;;;;;;20852730;28;20029;-78
2023/04/01 02:32:20;;;;;;;3.03;1.42;;;6.80;99.90;;;;;;20850627;28;20033;-78
2023/04/01 02:42:20;;;;;;;5.88;0.82;;;6.90;99.90;;;;;;20851590;28;20025;-77
2023/04/01 02:52:21;;;;;;;3.73;0.50;;;7.10;99.90;;;;;;20852241;28;20061;-78
2023/04/01 03:02:22;;;;;;;1.67;0.60;;;7.20;99.90;;;;;;20852038;28;20033;-78
2023/04/01 03:12:23;;;;;;;7.95;0.93;;;7.30;99.90;;;;;;20848032;28;20041;-78
2023/04/01 03:22:29;;;;;;;1.67;0.40;;;7.30;99.90;;;;;;20850438;28;20029;-78
2023/04/01 03:32:30;;;;;;;2.13;0.63;;;7.40;99.90;;;;;;20851543;28;20026;-78
2023/04/01 03:42:32;;;;;;;2.15;0.30;;;7.40;99.90;;;;;;20843750;28;20500;-76
2023/04/01 03:52:33;;;;;;;2.40;0.28;;;7.30;99.90;;;;;;20834657;28;20093;-77
2023/04/01 04:02:35;;;;;;;2.72;0.60;;;7.00;99.90;;;;;;20833731;28;20135;-77
2023/04/01 04:12:36;;;;;;;3.35;0.47;;;6.80;99.90;;;;;;20838512;28;20029;-77
2023/04/01 04:22:36;;;;;;;;;;;6.80;99.90;;;;;;20838788;28;20037;-78
2023/04/01 04:32:41;;;;;;;2.25;0.57;;;6.80;99.90;;;;;;20824239;28;19909;-78
2023/04/01 04:42:42;;;;;;;1.88;0.55;;;6.70;99.90;;;;;;20840758;28;20547;-77
2023/04/01 04:52:50;;;;;;;3.97;0.63;;;6.70;99.90;;;;;;20837142;28;20049;-78
2023/04/01 05:13:18;;;;;;;5.13;0.85;;;6.80;99.90;;;;;;20746349;28;20050;-80
2023/04/01 05:23:23;;;;;;;2.17;0.50;;;6.90;99.90;;;;;;20768729;28;20034;-81
2023/04/01 05:33:24;;;;;;;1.02;0.50;;;6.90;99.90;;;;;;20742816;28;20052;-81
2023/04/01 05:43:25;;;;;;;;;;;7.00;99.90;;;;;;20690846;28;20034;-81
2023/04/01 05:53:27;;;;;;;2.25;0.57;;;7.20;99.90;;;;;;20706301;28;20040;-80
2023/04/01 06:03:28;;;;;;;1.45;0.40;;;7.10;99.90;;;;;;20686913;28;20038;-81
2023/04/01 06:13:41;;;;;;;0.60;0.35;;;7.20;99.90;;;;;;20684354;28;20042;-80
2023/04/01 06:24:11;;;;;;;1.00;0.40;;;7.30;99.90;;;;;;20688779;28;20444;-78
2023/04/01 06:34:36;;;;;;;0.30;0.30;;;7.40;99.90;;;;;;20713117;28;20118;-82
2023/04/01 06:44:37;;;;;;;2.83;0.28;;;7.30;99.90;;;;;;20713935;28;20030;-81
2023/04/01 06:55:13;;;;;;;0.52;0.20;;;7.40;99.90;;;;;;20671292;28;20062;-81
2023/04/01 07:05:41;;;;;;;1.25;0.50;;;7.30;99.90;;;;;;20771735;28;20030;-80
2023/04/01 07:15:51;;;;;;;0.75;0.30;;;7.30;99.90;;;;;;20825718;28;20034;-81
2023/04/01 07:25:58;;;;;;;1.05;0.50;;;7.30;99.90;;;;;;20764193;28;20435;-80
2023/04/01 07:36:17;;;;;;;1.00;0.40;;;7.30;99.90;;;;;;20808055;28;20566;-81
2023/04/01 07:46:26;;;;;;;0.87;0.40;;;7.40;99.90;;;;;;20773564;28;20026;-81
2023/04/01 07:56:50;;;;;;;0.60;0.30;;;7.40;99.90;;;;;;20758256;28;20030;-81
2023/04/01 08:07:13;;;;;;;1.38;0.60;;;7.50;99.90;;;;;;20665981;28;20078;-81
2023/04/01 08:17:46;;;;;;;1.92;0.85;;;7.40;99.90;;;;;;20737267;28;20033;-81
2023/04/01 08:27:55;;;;;;;2.13;1.33;;;7.40;99.90;;;;;;20755992;28;20076;-80
2023/04/01 08:38:01;;;;;;;1.75;0.57;;;7.40;99.90;;;;;;20748075;28;20037;-82
2023/04/01 08:48:08;;;;;;;1.90;0.45;;;7.40;99.90;;;;;;20768079;28;20032;-79
2023/04/01 08:58:46;;;;;;;0.60;0.40;;;7.40;99.90;;;;;;20748316;28;20026;-77
2023/04/01 09:09:17;;;;;;;1.58;0.80;;;7.40;99.90;;;;;;20766872;28;20064;-80
2023/04/01 09:19:28;;;;;;;0.28;0.28;;;7.50;99.90;;;;;;20750440;28;20064;-80
2023/04/01 09:29:36;;;;;;;0.85;0.63;;;7.60;99.90;;;;;;20773942;28;20040;-79
2023/04/01 09:39:54;;;;;;;2.28;0.30;;;7.70;99.90;;;;;;20787081;28;20029;-79
2023/04/01 09:50:16;;;;;;;0.75;0.60;;;7.90;99.90;;;;;;20806359;28;20045;-78
2023/04/01 10:00:40;;;;;;;2.80;0.90;;;8.00;99.90;;;;;;20803341;28;20080;-80
2023/04/01 10:10:57;;;;;;;0.73;0.47;;;8.10;99.90;;;;;;20774227;28;20108;-78
2023/04/01 10:21:25;;;;;;;0.75;0.40;;;7.90;99.90;;;;;;20770126;28;20026;-79
2023/04/01 10:31:47;;;;;;;0.50;0.45;;;8.00;99.90;;;;;;20810563;28;20169;-78
2023/04/01 10:41:54;;;;;;;1.55;0.50;;;8.20;99.90;;;;;;20789694;28;20116;-79
2023/04/01 10:52:28;;;;;;;1.00;0.47;;;8.50;99.90;;;;;;20789605;28;20033;-79
2023/04/01 11:14:05;;;;;;;3.42;0.40;;;8.80;99.90;;;;;;20843133;28;20053;-77
2023/04/01 11:24:24;;;;;;;1.58;0.40;;;8.90;99.90;;;;;;20825231;28;20087;-76
2023/04/01 11:35:02;;;;;;;0.30;0.20;;;8.90;99.90;;;;;;20843434;28;20555;-77
2023/04/01 11:45:23;;;;;;;0.47;0.20;;;8.60;99.90;;;;;;20827937;28;20029;-77
2023/04/01 11:55:47;;;;;;;1.38;0.30;;;8.50;99.90;;;;;;20826091;28;20041;-77
2023/04/01 12:06:07;;;;;;;4.47;0.90;;;8.70;99.90;;;;;;20839237;28;20037;-76
2023/04/01 12:16:31;;;;;;;2.17;0.50;;;9.10;99.90;;;;;;20820366;28;20037;-77
2023/04/01 12:27:03;;;;;;;1.15;0.57;;;9.70;99.90;;;;;;20834923;28;20499;-76
2023/04/01 12:37:39;;;;;;;1.08;0.50;;;9.60;99.90;;;;;;20837619;28;20030;-77
2023/04/01 12:48:02;;;;;;;1.13;0.50;;;9.90;99.90;;;;;;20831875;28;20036;-76
2023/04/01 12:58:12;;;;;;;1.08;0.32;;;10.30;99.90;;;;;;20809055;28;20120;-76
2023/04/01 13:08:29;;;;;;;0.60;0.30;;;10.10;99.90;;;;;;20829402;28;20063;-76
2023/04/01 13:18:53;;;;;;;4.25;0.40;;;10.30;99.90;;;;;;20827949;28;20029;-76
2023/04/01 13:29:17;;;;;;;0.52;0.17;;;10.80;99.90;;;;;;20798407;28;20484;-76
2023/04/01 13:39:36;;;;;;;0.30;0.25;;;11.30;99.90;;;;;;20811136;28;20033;-76
2023/04/01 13:49:46;;;;;;;0.90;0.38;;;10.80;99.90;;;;;;20841952;28;20025;-77
2023/04/01 14:00:03;;;;;;;0.45;0.20;;;10.20;99.90;;;;;;20828892;28;20030;-77
2023/04/01 14:10:28;;;;;;;0.45;0.30;;;10.40;99.90;;;;;;20843207;28;20041;-77
2023/04/01 14:20:51;;;;;;;0.20;0.20;;;10.60;99.90;;;;;;20778667;28;20051;-77
2023/04/01 14:31:23;;;;;;;0.45;0.40;;;10.20;99.90;;;;;;20840912;28;20040;-77
2023/04/01 14:41:46;;;;;;;0.33;0.33;;;10.90;99.90;;;;;;20840855;28;20021;-76
2023/04/01 14:51:48;;;;;;;0.65;0.50;;;10.90;99.90;;;;;;20836516;28;20030;-76
2023/04/01 15:02:08;;;;;;;2.50;0.40;;;10.30;99.90;;;;;;20846858;28;20076;-77
2023/04/01 15:12:21;;;;;;;1.13;0.40;;;11.20;99.90;;;;;;20827908;28;20064;-76
2023/04/01 15:22:44;;;;;;;1.08;0.50;;;11.60;99.90;;;;;;20814028;28;20040;-76
2023/04/01 15:33:10;;;;;;;1.00;0.43;;;10.90;99.90;;;;;;20812249;28;20491;-77
2023/04/01 15:43:42;;;;;;;2.40;0.82;;;10.80;99.90;;;;;;20829525;28;20791;-77
2023/04/01 15:53:46;;;;;;;0.98;0.30;;;11.10;99.90;;;;;;20831789;28;20547;-77
2023/04/01 16:03:58;;;;;;;5.97;1.23;;;10.70;99.90;;;;;;20831521;28;20040;-77
2023/04/01 16:14:37;;;;;;;2.35;0.73;;;10.60;99.90;;;;;;20824798;28;20156;-78
2023/04/01 16:24:47;;;;;;;0.68;0.40;;;10.40;99.90;;;;;;20808822;28;20053;-78
2023/04/01 16:35:03;;;;;;;1.52;0.50;;;10.20;99.90;;;;;;20823068;28;20033;-77
2023/04/01 16:45:07;;;;;;;4.82;1.85;;;9.60;99.90;;;;;;20824305;28;20033;-78
2023/04/01 16:55:19;;;;;;;5.45;2.15;;;9.70;99.90;;;;;;20816252;28;20122;-78
2023/04/01 17:05:36;;;;;;;3.45;1.00;;;9.60;99.90;;;;;;20862648;22;20040;-76
2023/04/01 17:16:06;;;;;;;2.28;0.90;;;9.40;99.90;;;;;;20983205;28;20024;-76
2023/04/01 17:26:35;;;;;;;2.22;0.70;;;9.50;99.90;;;;;;20947795;28;20123;-78
2023/04/01 17:36:51;;;;;;;2.33;0.95;;;9.40;99.90;;;;;;20979056;28;20165;-77
2023/04/01 17:47:00;;;;;;;2.28;0.80;;;9.20;99.90;;;;;;21003460;28;20024;-80
2023/04/01 17:57:19;;;;;;;6.30;1.70;;;9.00;99.90;;;;;;20986767;28;20059;-77
2023/04/01 18:07:45;;;;;;;4.68;1.40;;;8.80;99.90;;;;;;20971189;28;20037;-77
2023/04/01 18:18:18;;;;;;;2.83;0.90;;;8.70;99.90;;;;;;20976476;28;20089;-77
2023/04/01 18:28:38;;;;;;;1.48;0.70;;;8.50;99.90;;;;;;20958946;28;20495;-76
2023/04/01 18:38:45;;;;;;;1.33;0.68;;;8.40;99.90;;;;;;21044483;28;20036;-77
2023/04/01 18:49:07;;;;;;;1.25;0.70;;;8.20;99.90;;;;;;20994032;28;20029;-75
2023/04/01 18:59:15;;;;;;;1.42;0.85;;;8.00;99.90;;;;;;21004545;28;20035;-77
2023/04/01 19:09:43;;;;;;;2.45;0.75;;;8.00;99.90;;;;;;21011414;28;20043;-77
2023/04/01 19:20:05;;;;;;;2.47;0.90;;;7.70;99.90;;;;;;20977675;28;20025;-76
2023/04/01 19:30:12;;;;;;;3.65;2.35;;;7.90;99.90;;;;;;20975658;28;20029;-76
2023/04/01 19:40:31;;;;;;;4.13;1.98;;;7.90;99.90;;;;;;20975426;28;20565;-77
2023/04/01 19:50:52;;;;;;;7.50;0.82;;;7.70;99.90;;;;;;20919083;28;20132;-77
2023/04/01 20:00:57;;;;;;;1.75;0.52;;;7.60;99.90;;;;;;20971118;28;20055;-75
2023/04/01 20:11:13;;;;;;;1.30;0.60;;;7.40;99.90;;;;;;20970582;28;20050;-76
2023/04/01 20:21:14;;;;;;;2.00;0.63;;;7.00;99.90;;;;;;20951312;28;20394;-77
2023/04/01 20:31:15;;;;;;;;;;;6.50;99.90;;;;;;20941337;28;20429;-77
2023/04/01 20:41:45;;;;;;;1.17;0.60;;;6.10;99.90;;;;;;20946506;28;19918;-77
2023/04/01 20:51:54;;;;;;;0.82;0.65;;;6.10;99.90;;;;;;20958858;28;20460;-77
2023/04/01 21:02:15;;;;;;;2.03;1.10;;;5.90;99.90;;;;;;20954233;28;20024;-77
2023/04/01 21:12:27;;;;;;;2.50;0.83;;;5.70;99.90;;;;;;20917924;28;20058;-76
2023/04/01 21:22:52;;;;;;;2.88;1.02;;;5.40;99.90;;;;;;20982235;28;20596;-78
2023/04/01 21:32:53;;;;;;;1.80;0.90;;;5.10;99.90;;;;;;20980662;28;20028;-77
2023/04/01 21:42:57;;;;;;;;;;;5.30;99.90;;;;;;20972976;28;20479;-76
2023/04/01 21:53:25;;;;;;;4.57;1.40;;;5.40;99.90;;;;;;20978478;28;19908;-76
2023/04/01 22:04:07;;;;;;;3.05;1.55;;;5.40;99.90;;;;;;20986003;28;20495;-77
2023/04/01 22:14:41;;;;;;;3.63;2.23;;;6.00;99.90;;;;;;20984495;28;20110;-77
2023/04/01 22:25:02;;;;;;;4.57;2.38;;;5.90;99.90;;;;;;20984722;28;20287;-77
2023/04/01 22:35:26;;;;;;;11.00;2.73;;;5.90;99.90;;;;;;20993651;28;20086;-77
2023/04/01 22:45:37;;;;;;;5.82;2.42;;;6.00;99.90;;;;;;20982607;28;20038;-78
2023/04/01 22:55:41;;;;;;;4.28;2.33;;;6.10;99.90;;;;;;20976139;28;20088;-76
2023/04/01 23:05:53;;;;;;;4.40;2.10;;;6.20;99.90;;;;;;21009829;28;20025;-77
2023/04/01 23:15:54;;;;;;;5.00;3.38;;;6.30;99.90;;;;;;21004521;28;20032;-77
2023/04/01 23:26:09;;;;;;;9.65;2.75;;;6.20;99.90;;;;;;20996767;28;20523;-77
2023/04/01 23:36:13;;;;;;;4.10;2.38;;;6.20;99.90;;;;;;20992368;28;20028;-77
2023/04/01 23:46:15;;;;;;;4.32;2.75;;;6.10;99.90;;;;;;20998736;28;20067;-77
2023/04/01 23:56:18;;;;;;;6.85;2.90;;;5.90;99.90;;;;;;20998758;28;20040;-77
